11:29
Airports
Links
Donate
Help keep this website running!
PayPal
Bitcoin
METAR
VOCB 111100Z 15005KT 5000 HZ FEW015 BKN080 30/17 Q1013 NOSIG
Current Weather Conditions at VOCB
MVFR 11:00:00 11-12-17
Altimeter:29.91 hg
Temp:30.0°c 86°f
Dew point:17.0°c 63°f
Wind:5 knots, 5.8 mph, 3 m/s, from 150°
Visibility:3.11 statute miles
8000(BKN) Broken
1500(FEW) A few
No significant weather changes expected within 2 hours.
Past METAR reports
MVFR 10:30:00 11-12-17
Altimeter:29.91 hg
Temp:30.0°c 86°f
Dew point:17.0°c 63°f
Wind:4 knots, 4.6 mph, 2 m/s, from 100°
Visibility:3.11 statute miles
8000(BKN) Broken
1500(FEW) A few
No significant weather changes expected within 2 hours.
VOCB 111030Z 10004KT 5000 HZ FEW015 BKN080 30/17 Q1013 NOSIG
MVFR 10:00:00 11-12-17
Altimeter:29.91 hg
Temp:30.0°c 86°f
Dew point:18.0°c 64°f
Wind:5 knots, 5.8 mph, 3 m/s, from 120°
Visibility:3.11 statute miles
8000(BKN) Broken
1500(FEW) A few
No significant weather changes expected within 2 hours.
VOCB 111000Z 12005KT 5000 HZ FEW015 BKN080 30/18 Q1013 NOSIG
MVFR 09:30:00 11-12-17
Altimeter:29.91 hg
Temp:31.0°c 88°f
Dew point:17.0°c 63°f
Wind:4 knots, 4.6 mph, 2 m/s, from 110°
Visibility:3.11 statute miles
8000(SCT) Scattered
1500(FEW) A few
No significant weather changes expected within 2 hours.
VOCB 110930Z 11004KT 5000 HZ FEW015 SCT080 31/17 Q1013 NOSIG
MVFR 09:00:00 11-12-17
Altimeter:29.91 hg
Temp:31.0°c 88°f
Dew point:19.0°c 66°f
Wind:5 knots, 5.8 mph, 3 m/s, from 120°
Visibility:3.11 statute miles
1500(SCT) Scattered
No significant weather changes expected within 2 hours.
VOCB 110900Z 12005KT 5000 HZ SCT015 31/19 Q1013 NOSIG
MVFR 08:30:00 11-12-17
Altimeter:29.91 hg
Temp:31.0°c 88°f
Dew point:18.0°c 64°f
Wind:5 knots, 5.8 mph, 3 m/s, from 110°
Visibility:3.11 statute miles
8000(SCT) Scattered
1500(FEW) A few
No significant weather changes expected within 2 hours.
VOCB 110830Z 11005KT 5000 HZ FEW015 SCT080 31/18 Q1013 NOSIG
MVFR 08:00:00 11-12-17
Altimeter:29.94 hg
Temp:30.0°c 86°f
Dew point:18.0°c 64°f
Wind:6 knots, 6.9 mph, 3 m/s, from 110°
Visibility:3.11 statute miles
8000(SCT) Scattered
1500(FEW) A few
No significant weather changes expected within 2 hours.
VOCB 110800Z 11006KT 5000 HZ FEW015 SCT080 30/18 Q1014 NOSIG
TAF
TAF VOCB 111100Z 1112/1218 12005KT 5000 HZ FEW015 SCT080 BECMG 1118/1119 00000KT 3000 BR TEMPO 1200/1203 1500 BR BECMG 1206/1207 12005KT 5000 HZ
Forecast at VOCB
12:00 11-12-17 to 18:00 11-12-17
HZ
Wind:5 Knots from 120°
Visibility:3.11 statute miles
1500FEW A few
8000SCT Scattered
BECMG 18:00 11-12-17 to 06:00 12-12-17
BR
Wind:0 Knots Variable direction
Visibility:1.86 statute miles
1500FEW A few
8000SCT Scattered
TEMPO 00:00 12-12-17 to 03:00 12-12-17
BR
Visibility:0.93 statute miles
BECMG 06:00 12-12-17 to 18:00 12-12-17
HZ
Wind:5 Knots from 120°
Visibility:3.11 statute miles
1500FEW A few
8000SCT Scattered